sensor_id;sensor_type;location;lat;lon;timestamp;pressure;altitude;pressure_sealevel;temperature;humidity
80945;BME280;70400;50.934;11.590;2024-01-15T00:00:07;98449.50;;;1.34;71.46
80945;BME280;70400;50.934;11.590;2024-01-15T00:01:02;98454.38;;;1.27;71.09
80945;BME280;70400;50.934;11.590;2024-01-15T00:01:54;98446.69;;;1.26;71.57
80945;BME280;70400;50.934;11.590;2024-01-15T00:02:45;98442.34;;;1.15;71.39
80945;BME280;70400;50.934;11.590;2024-01-15T00:03:36;98439.41;;;1.20;71.42
80945;BME280;70400;50.934;11.590;2024-01-15T00:04:26;98446.94;;;1.23;71.54
80945;BME280;70400;50.934;11.590;2024-01-15T00:05:17;98445.63;;;1.28;71.76
80945;BME280;70400;50.934;11.590;2024-01-15T00:06:08;98441.84;;;1.21;71.27
80945;BME280;70400;50.934;11.590;2024-01-15T00:06:59;98436.81;;;1.20;71.91
80945;BME280;70400;50.934;11.590;2024-01-15T00:07:50;98430.41;;;1.24;71.75
80945;BME280;70400;50.934;11.590;2024-01-15T00:08:41;98435.59;;;1.24;71.63
80945;BME280;70400;50.934;11.590;2024-01-15T00:09:32;98435.34;;;1.27;71.63
80945;BME280;70400;50.934;11.590;2024-01-15T00:10:23;98447.41;;;1.28;71.17
80945;BME280;70400;50.934;11.590;2024-01-15T00:11:14;98443.63;;;1.21;71.11
80945;BME280;70400;50.934;11.590;2024-01-15T00:12:05;98450.91;;;1.27;71.07
80945;BME280;70400;50.934;11.590;2024-01-15T00:12:57;98442.91;;;1.30;71.28
80945;BME280;70400;50.934;11.590;2024-01-15T00:13:47;98441.00;;;1.32;71.08
80945;BME280;70400;50.934;11.590;2024-01-15T00:14:38;98439.34;;;1.31;70.91
80945;BME280;70400;50.934;11.590;2024-01-15T00:15:29;98441.50;;;1.26;71.06
80945;BME280;70400;50.934;11.590;2024-01-15T00:16:20;98440.31;;;1.30;71.44
80945;BME280;70400;50.934;11.590;2024-01-15T00:17:12;98437.81;;;1.28;71.25
80945;BME280;70400;50.934;11.590;2024-01-15T00:18:03;98434.66;;;1.25;71.15
80945;BME280;70400;50.934;11.590;2024-01-15T00:18:55;98436.41;;;1.24;71.45
80945;BME280;70400;50.934;11.590;2024-01-15T00:19:45;98426.16;;;1.23;71.42
80945;BME280;70400;50.934;11.590;2024-01-15T00:20:36;98426.53;;;1.18;71.36
80945;BME280;70400;50.934;11.590;2024-01-15T00:21:27;98426.53;;;1.18;71.65
80945;BME280;70400;50.934;11.590;2024-01-15T00:22:18;98423.38;;;1.15;72.37
80945;BME280;70400;50.934;11.590;2024-01-15T00:23:09;98412.84;;;1.16;71.48
80945;BME280;70400;50.934;11.590;2024-01-15T00:24:00;98419.25;;;1.12;71.58
80945;BME280;70400;50.934;11.590;2024-01-15T00:24:51;98419.09;;;1.14;72.11
80945;BME280;70400;50.934;11.590;2024-01-15T00:25:42;98408.16;;;1.10;71.86
80945;BME280;70400;50.934;11.590;2024-01-15T00:26:33;98412.28;;;1.13;71.66
80945;BME280;70400;50.934;11.590;2024-01-15T00:27:24;98404.03;;;1.07;71.83
80945;BME280;70400;50.934;11.590;2024-01-15T00:28:14;98409.06;;;1.09;71.77
80945;BME280;70400;50.934;11.590;2024-01-15T00:29:09;98400.72;;;1.05;72.05
80945;BME280;70400;50.934;11.590;2024-01-15T00:30:01;98408.50;;;1.05;71.52
80945;BME280;70400;50.934;11.590;2024-01-15T00:30:52;98406.88;;;1.04;72.26
80945;BME280;70400;50.934;11.590;2024-01-15T00:31:43;98408.63;;;1.04;72.14
80945;BME280;70400;50.934;11.590;2024-01-15T00:32:34;98413.69;;;1.05;72.25
80945;BME280;70400;50.934;11.590;2024-01-15T00:33:25;98413.13;;;1.02;72.61
80945;BME280;70400;50.934;11.590;2024-01-15T00:34:16;98423.13;;;1.06;72.22
80945;BME280;70400;50.934;11.590;2024-01-15T00:35:07;98429.63;;;1.12;72.25
80945;BME280;70400;50.934;11.590;2024-01-15T00:35:58;98422.66;;;1.01;72.52
80945;BME280;70400;50.934;11.590;2024-01-15T00:36:48;98427.75;;;1.03;72.42
80945;BME280;70400;50.934;11.590;2024-01-15T00:37:39;98431.06;;;1.05;72.15
80945;BME280;70400;50.934;11.590;2024-01-15T00:38:30;98432.94;;;1.03;72.74
80945;BME280;70400;50.934;11.590;2024-01-15T00:39:21;98434.09;;;1.10;72.65
80945;BME280;70400;50.934;11.590;2024-01-15T00:40:12;98431.81;;;1.17;72.13
80945;BME280;70400;50.934;11.590;2024-01-15T00:41:03;98441.28;;;1.18;72.16
80945;BME280;70400;50.934;11.590;2024-01-15T00:41:54;98434.81;;;1.12;72.04
80945;BME280;70400;50.934;11.590;2024-01-15T00:42:45;98432.69;;;1.17;71.75
80945;BME280;70400;50.934;11.590;2024-01-15T00:43:36;98431.59;;;1.20;71.47
80945;BME280;70400;50.934;11.590;2024-01-15T00:44:27;98435.03;;;1.20;72.10
80945;BME280;70400;50.934;11.590;2024-01-15T00:45:18;98428.31;;;1.18;71.39
80945;BME280;70400;50.934;11.590;2024-01-15T00:46:09;98426.28;;;1.21;71.83
80945;BME280;70400;50.934;11.590;2024-01-15T00:47:00;98422.03;;;1.20;71.45
80945;BME280;70400;50.934;11.590;2024-01-15T00:47:52;98419.31;;;1.22;71.52
80945;BME280;70400;50.934;11.590;2024-01-15T00:48:44;98409.63;;;1.24;71.41
80945;BME280;70400;50.934;11.590;2024-01-15T00:49:35;98418.69;;;1.29;71.66
80945;BME280;70400;50.934;11.590;2024-01-15T00:50:26;98413.63;;;1.28;71.29
80945;BME280;70400;50.934;11.590;2024-01-15T00:51:17;98416.50;;;1.25;71.11
80945;BME280;70400;50.934;11.590;2024-01-15T00:52:08;98411.97;;;1.27;71.50
80945;BME280;70400;50.934;11.590;2024-01-15T00:52:58;98411.03;;;1.28;71.38
80945;BME280;70400;50.934;11.590;2024-01-15T00:53:49;98411.28;;;1.25;71.28
80945;BME280;70400;50.934;11.590;2024-01-15T00:54:40;98410.59;;;1.23;71.30
80945;BME280;70400;50.934;11.590;2024-01-15T00:55:31;98406.56;;;1.30;70.93
80945;BME280;70400;50.934;11.590;2024-01-15T00:56:22;98403.63;;;1.23;71.44
80945;BME280;70400;50.934;11.590;2024-01-15T00:57:13;98398.75;;;1.30;71.30
80945;BME280;70400;50.934;11.590;2024-01-15T00:58:04;98401.97;;;1.22;71.07
80945;BME280;70400;50.934;11.590;2024-01-15T00:58:55;98409.53;;;1.25;71.40
80945;BME280;70400;50.934;11.590;2024-01-15T00:59:47;98404.44;;;1.24;70.99
80945;BME280;70400;50.934;11.590;2024-01-15T01:00:38;98399.28;;;1.13;71.73
80945;BME280;70400;50.934;11.590;2024-01-15T01:01:29;98408.34;;;1.18;71.68
80945;BME280;70400;50.934;11.590;2024-01-15T01:02:20;98406.72;;;1.17;71.40
80945;BME280;70400;50.934;11.590;2024-01-15T01:03:11;98403.78;;;1.11;71.43
80945;BME280;70400;50.934;11.590;2024-01-15T01:04:02;98405.41;;;1.12;72.26
80945;BME280;70400;50.934;11.590;2024-01-15T01:04:53;98414.97;;;1.11;71.30
80945;BME280;70400;50.934;11.590;2024-01-15T01:05:44;98414.72;;;1.14;71.46
80945;BME280;70400;50.934;11.590;2024-01-15T01:06:35;98406.81;;;1.16;71.91
80945;BME280;70400;50.934;11.590;2024-01-15T01:07:26;98400.44;;;1.20;71.97
80945;BME280;70400;50.934;11.590;2024-01-15T01:08:17;98410.13;;;1.18;71.41
80945;BME280;70400;50.934;11.590;2024-01-15T01:09:08;98406.31;;;1.22;71.57
80945;BME280;70400;50.934;11.590;2024-01-15T01:09:59;98397.84;;;1.20;71.94
80945;BME280;70400;50.934;11.590;2024-01-15T01:10:49;98403.06;;;1.20;71.68
80945;BME280;70400;50.934;11.590;2024-01-15T01:11:40;98399.25;;;1.24;71.51
80945;BME280;70400;50.934;11.590;2024-01-15T01:12:31;98385.69;;;1.20;71.43
80945;BME280;70400;50.934;11.590;2024-01-15T01:13:22;98397.16;;;1.18;71.56
80945;BME280;70400;50.934;11.590;2024-01-15T01:14:13;98393.13;;;1.14;71.50
80945;BME280;70400;50.934;11.590;2024-01-15T01:15:04;98393.75;;;1.17;71.24
80945;BME280;70400;50.934;11.590;2024-01-15T01:15:56;98400.00;;;1.15;71.34
80945;BME280;70400;50.934;11.590;2024-01-15T01:16:47;98398.47;;;1.12;71.52
80945;BME280;70400;50.934;11.590;2024-01-15T01:17:40;98391.97;;;1.06;71.48
80945;BME280;70400;50.934;11.590;2024-01-15T01:18:31;98402.50;;;1.05;71.65
80945;BME280;70400;50.934;11.590;2024-01-15T01:19:22;98394.47;;;1.08;71.73
80945;BME280;70400;50.934;11.590;2024-01-15T01:20:13;98400.00;;;1.03;71.81
80945;BME280;70400;50.934;11.590;2024-01-15T01:21:08;98406.47;;;1.09;71.72
80945;BME280;70400;50.934;11.590;2024-01-15T01:21:59;98405.66;;;1.08;72.10
80945;BME280;70400;50.934;11.590;2024-01-15T01:22:50;98407.78;;;1.15;71.64
80945;BME280;70400;50.934;11.590;2024-01-15T01:23:41;98411.00;;;1.07;71.18
80945;BME280;70400;50.934;11.590;2024-01-15T01:24:32;98412.63;;;1.08;71.20
80945;BME280;70400;50.934;11.590;2024-01-15T01:25:23;98406.97;;;1.03;71.84
80945;BME280;70400;50.934;11.590;2024-01-15T01:26:17;98409.69;;;1.01;71.29
80945;BME280;70400;50.934;11.590;2024-01-15T01:27:08;98416.78;;;0.99;71.71
80945;BME280;70400;50.934;11.590;2024-01-15T01:27:59;98407.81;;;1.03;71.76
80945;BME280;70400;50.934;11.590;2024-01-15T01:28:50;98404.75;;;0.98;71.61
80945;BME280;70400;50.934;11.590;2024-01-15T01:29:41;98407.09;;;1.01;71.88
80945;BME280;70400;50.934;11.590;2024-01-15T01:30:32;98417.97;;;0.95;71.77
80945;BME280;70400;50.934;11.590;2024-01-15T01:31:23;98423.63;;;1.00;72.92
80945;BME280;70400;50.934;11.590;2024-01-15T01:32:14;98420.06;;;1.01;72.42
80945;BME280;70400;50.934;11.590;2024-01-15T01:33:05;98417.47;;;1.01;72.29
80945;BME280;70400;50.934;11.590;2024-01-15T01:33:56;98419.72;;;1.06;71.80
80945;BME280;70400;50.934;11.590;2024-01-15T01:34:46;98417.63;;;1.00;71.83
80945;BME280;70400;50.934;11.590;2024-01-15T01:35:37;98414.50;;;1.06;71.64
80945;BME280;70400;50.934;11.590;2024-01-15T01:36:28;98407.34;;;0.98;71.17
80945;BME280;70400;50.934;11.590;2024-01-15T01:37:22;98410.53;;;1.02;71.75
80945;BME280;70400;50.934;11.590;2024-01-15T01:38:13;98416.28;;;1.05;71.47
80945;BME280;70400;50.934;11.590;2024-01-15T01:39:04;98410.75;;;0.99;71.38
80945;BME280;70400;50.934;11.590;2024-01-15T01:39:55;98412.28;;;1.01;71.45
80945;BME280;70400;50.934;11.590;2024-01-15T01:40:45;98403.94;;;0.98;71.28
80945;BME280;70400;50.934;11.590;2024-01-15T01:41:38;98402.97;;;0.99;71.67
80945;BME280;70400;50.934;11.590;2024-01-15T01:42:29;98398.38;;;1.02;71.37
80945;BME280;70400;50.934;11.590;2024-01-15T01:43:20;98393.53;;;0.98;71.74
80945;BME280;70400;50.934;11.590;2024-01-15T01:44:11;98400.06;;;0.92;71.63
80945;BME280;70400;50.934;11.590;2024-01-15T01:45:02;98401.56;;;0.95;71.84
80945;BME280;70400;50.934;11.590;2024-01-15T01:45:57;98406.88;;;0.93;71.77
80945;BME280;70400;50.934;11.590;2024-01-15T01:46:52;98401.44;;;0.96;71.53
80945;BME280;70400;50.934;11.590;2024-01-15T01:47:43;98401.22;;;0.88;71.60
80945;BME280;70400;50.934;11.590;2024-01-15T01:48:34;98392.88;;;0.84;71.72
80945;BME280;70400;50.934;11.590;2024-01-15T01:49:25;98398.06;;;0.84;71.30
80945;BME280;70400;50.934;11.590;2024-01-15T01:50:17;98402.03;;;0.89;72.52
80945;BME280;70400;50.934;11.590;2024-01-15T01:51:08;98394.88;;;0.92;71.82
80945;BME280;70400;50.934;11.590;2024-01-15T01:52:00;98392.63;;;0.88;71.21
80945;BME280;70400;50.934;11.590;2024-01-15T01:52:52;98396.66;;;0.80;71.47
80945;BME280;70400;50.934;11.590;2024-01-15T01:53:43;98399.69;;;0.85;71.71
80945;BME280;70400;50.934;11.590;2024-01-15T01:54:35;98405.38;;;0.79;71.77
80945;BME280;70400;50.934;11.590;2024-01-15T01:55:27;98408.78;;;0.80;71.71
80945;BME280;70400;50.934;11.590;2024-01-15T01:56:19;98406.44;;;0.77;71.59
80945;BME280;70400;50.934;11.590;2024-01-15T01:57:10;98397.94;;;0.75;71.77
80945;BME280;70400;50.934;11.590;2024-01-15T01:58:03;98402.91;;;0.78;71.85
80945;BME280;70400;50.934;11.590;2024-01-15T01:58:54;98398.16;;;0.83;71.75
80945;BME280;70400;50.934;11.590;2024-01-15T01:59:46;98404.19;;;0.83;71.58
80945;BME280;70400;50.934;11.590;2024-01-15T02:00:37;98388.16;;;0.78;71.50
80945;BME280;70400;50.934;11.590;2024-01-15T02:01:30;98404.19;;;0.83;71.47
80945;BME280;70400;50.934;11.590;2024-01-15T02:02:21;98393.09;;;0.81;71.37
80945;BME280;70400;50.934;11.590;2024-01-15T02:03:12;98393.81;;;0.83;71.27
80945;BME280;70400;50.934;11.590;2024-01-15T02:04:04;98393.44;;;0.88;72.01
80945;BME280;70400;50.934;11.590;2024-01-15T02:04:55;98388.25;;;0.88;71.08
80945;BME280;70400;50.934;11.590;2024-01-15T02:05:47;98392.03;;;0.84;70.81
80945;BME280;70400;50.934;11.590;2024-01-15T02:06:39;98394.16;;;0.79;71.08
80945;BME280;70400;50.934;11.590;2024-01-15T02:07:34;98388.84;;;0.80;71.75
80945;BME280;70400;50.934;11.590;2024-01-15T02:08:25;98392.28;;;0.81;71.15
80945;BME280;70400;50.934;11.590;2024-01-15T02:09:17;98389.56;;;0.82;71.56
80945;BME280;70400;50.934;11.590;2024-01-15T02:10:10;98390.59;;;0.91;71.78
80945;BME280;70400;50.934;11.590;2024-01-15T02:11:01;98389.91;;;0.89;71.00
80945;BME280;70400;50.934;11.590;2024-01-15T02:11:52;98388.00;;;0.91;71.67
80945;BME280;70400;50.934;11.590;2024-01-15T02:12:43;98395.78;;;0.91;70.64
80945;BME280;70400;50.934;11.590;2024-01-15T02:13:34;98401.13;;;0.90;71.04
80945;BME280;70400;50.934;11.590;2024-01-15T02:14:25;98392.88;;;0.84;71.34
80945;BME280;70400;50.934;11.590;2024-01-15T02:15:16;98393.69;;;0.85;71.47
80945;BME280;70400;50.934;11.590;2024-01-15T02:16:07;98387.44;;;0.88;71.10
80945;BME280;70400;50.934;11.590;2024-01-15T02:16:58;98388.16;;;0.90;70.85
80945;BME280;70400;50.934;11.590;2024-01-15T02:18:04;98388.84;;;0.80;70.88
80945;BME280;70400;50.934;11.590;2024-01-15T02:18:55;98390.50;;;0.81;71.25
80945;BME280;70400;50.934;11.590;2024-01-15T02:19:46;98387.91;;;0.81;71.35
80945;BME280;70400;50.934;11.590;2024-01-15T02:20:37;98383.66;;;0.80;71.00
80945;BME280;70400;50.934;11.590;2024-01-15T02:21:28;98382.97;;;0.78;71.14
80945;BME280;70400;50.934;11.590;2024-01-15T02:22:19;98385.31;;;0.81;71.36
80945;BME280;70400;50.934;11.590;2024-01-15T02:23:12;98382.72;;;0.81;70.78
80945;BME280;70400;50.934;11.590;2024-01-15T02:24:03;98382.72;;;0.81;71.44
80945;BME280;70400;50.934;11.590;2024-01-15T02:24:54;98377.31;;;0.84;71.23
80945;BME280;70400;50.934;11.590;2024-01-15T02:25:46;98382.25;;;0.88;71.21
80945;BME280;70400;50.934;11.590;2024-01-15T02:26:37;98382.00;;;0.91;70.81
80945;BME280;70400;50.934;11.590;2024-01-15T02:27:29;98387.69;;;0.84;71.26
80945;BME280;70400;50.934;11.590;2024-01-15T02:28:20;98380.34;;;0.90;70.88
80945;BME280;70400;50.934;11.590;2024-01-15T02:29:11;98371.25;;;0.84;71.24
80945;BME280;70400;50.934;11.590;2024-01-15T02:30:06;98368.56;;;0.85;71.25
80945;BME280;70400;50.934;11.590;2024-01-15T02:30:59;98370.78;;;0.90;71.44
80945;BME280;70400;50.934;11.590;2024-01-15T02:31:50;98368.19;;;0.90;71.13
80945;BME280;70400;50.934;11.590;2024-01-15T02:32:41;98377.63;;;0.91;70.78
80945;BME280;70400;50.934;11.590;2024-01-15T02:33:32;98380.72;;;0.85;71.14
80945;BME280;70400;50.934;11.590;2024-01-15T02:34:23;98377.75;;;0.90;70.70
80945;BME280;70400;50.934;11.590;2024-01-15T02:35:14;98373.03;;;0.83;70.66
80945;BME280;70400;50.934;11.590;2024-01-15T02:36:05;98374.81;;;0.83;70.40
80945;BME280;70400;50.934;11.590;2024-01-15T02:36:56;98376.69;;;0.81;70.96
80945;BME280;70400;50.934;11.590;2024-01-15T02:37:47;98378.72;;;0.77;70.32
80945;BME280;70400;50.934;11.590;2024-01-15T02:38:38;98375.22;;;0.67;70.77
80945;BME280;70400;50.934;11.590;2024-01-15T02:39:29;98372.47;;;0.69;71.42
80945;BME280;70400;50.934;11.590;2024-01-15T02:40:20;98388.44;;;0.64;71.30
80945;BME280;70400;50.934;11.590;2024-01-15T02:41:11;98389.97;;;0.67;71.09
80945;BME280;70400;50.934;11.590;2024-01-15T02:42:04;98393.47;;;0.65;71.29
80945;BME280;70400;50.934;11.590;2024-01-15T02:42:55;98394.91;;;0.70;71.32
80945;BME280;70400;50.934;11.590;2024-01-15T02:43:46;98392.16;;;0.71;71.27
80945;BME280;70400;50.934;11.590;2024-01-15T02:44:37;98389.34;;;0.74;70.89
80945;BME280;70400;50.934;11.590;2024-01-15T02:45:28;98383.09;;;0.77;71.11
80945;BME280;70400;50.934;11.590;2024-01-15T02:46:19;98390.03;;;0.76;70.79
80945;BME280;70400;50.934;11.590;2024-01-15T02:47:09;98399.72;;;0.74;71.15
80945;BME280;70400;50.934;11.590;2024-01-15T02:48:00;98406.09;;;0.70;71.26
80945;BME280;70400;50.934;11.590;2024-01-15T02:48:51;98398.19;;;0.72;70.92
80945;BME280;70400;50.934;11.590;2024-01-15T02:49:42;98385.44;;;0.80;70.98
80945;BME280;70400;50.934;11.590;2024-01-15T02:50:33;98394.41;;;0.76;70.95
80945;BME280;70400;50.934;11.590;2024-01-15T02:51:24;98375.31;;;0.77;71.23
80945;BME280;70400;50.934;11.590;2024-01-15T02:52:15;98390.19;;;0.75;70.67
80945;BME280;70400;50.934;11.590;2024-01-15T02:53:05;98389.09;;;0.77;70.82
80945;BME280;70400;50.934;11.590;2024-01-15T02:53:58;98388.50;;;0.85;71.16
80945;BME280;70400;50.934;11.590;2024-01-15T02:54:50;98391.91;;;0.85;71.18
80945;BME280;70400;50.934;11.590;2024-01-15T02:55:40;98387.69;;;0.84;70.67
80945;BME280;70400;50.934;11.590;2024-01-15T02:56:31;98378.47;;;0.80;70.83
80945;BME280;70400;50.934;11.590;2024-01-15T02:57:22;98371.75;;;0.78;70.82
80945;BME280;70400;50.934;11.590;2024-01-15T02:58:14;98380.56;;;0.86;70.29
80945;BME280;70400;50.934;11.590;2024-01-15T02:59:05;98374.34;;;0.89;70.80
80945;BME280;70400;50.934;11.590;2024-01-15T02:59:56;98376.25;;;0.87;70.51
80945;BME280;70400;50.934;11.590;2024-01-15T03:00:47;98376.44;;;0.95;69.80
80945;BME280;70400;50.934;11.590;2024-01-15T03:01:38;98380.94;;;0.93;70.14
80945;BME280;70400;50.934;11.590;2024-01-15T03:02:29;98373.03;;;0.95;69.52
80945;BME280;70400;50.934;11.590;2024-01-15T03:03:22;98370.44;;;0.95;70.02
80945;BME280;70400;50.934;11.590;2024-01-15T03:04:13;98362.50;;;0.96;69.84
80945;BME280;70400;50.934;11.590;2024-01-15T03:05:05;98376.19;;;0.98;69.77
80945;BME280;70400;50.934;11.590;2024-01-15T03:05:56;98369.94;;;1.01;70.02
80945;BME280;70400;50.934;11.590;2024-01-15T03:06:47;98367.69;;;0.96;69.43
80945;BME280;70400;50.934;11.590;2024-01-15T03:07:38;98373.50;;;1.00;69.30
80945;BME280;70400;50.934;11.590;2024-01-15T03:08:28;98373.59;;;0.98;69.53
80945;BME280;70400;50.934;11.590;2024-01-15T03:09:19;98375.59;;;1.06;70.34
80945;BME280;70400;50.934;11.590;2024-01-15T03:10:10;98376.78;;;1.02;69.52
80945;BME280;70400;50.934;11.590;2024-01-15T03:11:01;98373.34;;;1.01;69.35
80945;BME280;70400;50.934;11.590;2024-01-15T03:11:52;98377.38;;;1.05;69.86
80945;BME280;70400;50.934;11.590;2024-01-15T03:12:43;98379.84;;;1.07;69.27
80945;BME280;70400;50.934;11.590;2024-01-15T03:13:36;98374.75;;;1.05;69.07
80945;BME280;70400;50.934;11.590;2024-01-15T03:14:27;98373.69;;;1.08;69.24
80945;BME280;70400;50.934;11.590;2024-01-15T03:15:18;98388.19;;;1.11;69.21
80945;BME280;70400;50.934;11.590;2024-01-15T03:16:10;98381.22;;;1.11;69.03
80945;BME280;70400;50.934;11.590;2024-01-15T03:17:01;98387.25;;;1.12;69.17
80945;BME280;70400;50.934;11.590;2024-01-15T03:17:51;98387.50;;;1.08;69.06
80945;BME280;70400;50.934;11.590;2024-01-15T03:18:42;98396.59;;;1.03;69.47
80945;BME280;70400;50.934;11.590;2024-01-15T03:19:35;98390.09;;;1.08;69.31
80945;BME280;70400;50.934;11.590;2024-01-15T03:20:26;98403.56;;;1.02;68.74
80945;BME280;70400;50.934;11.590;2024-01-15T03:21:17;98406.16;;;1.02;68.79
80945;BME280;70400;50.934;11.590;2024-01-15T03:22:08;98398.38;;;1.02;68.82
80945;BME280;70400;50.934;11.590;2024-01-15T03:22:59;98393.91;;;1.04;69.49
80945;BME280;70400;50.934;11.590;2024-01-15T03:23:50;98388.34;;;0.98;69.36
80945;BME280;70400;50.934;11.590;2024-01-15T03:24:40;98379.50;;;1.00;69.15
80945;BME280;70400;50.934;11.590;2024-01-15T03:25:31;98379.50;;;1.00;69.09
80945;BME280;70400;50.934;11.590;2024-01-15T03:26:22;98373.25;;;1.03;69.16
80945;BME280;70400;50.934;11.590;2024-01-15T03:27:13;98391.75;;;0.98;69.39
80945;BME280;70400;50.934;11.590;2024-01-15T03:28:04;98380.31;;;1.01;68.96
80945;BME280;70400;50.934;11.590;2024-01-15T03:28:55;98383.50;;;1.04;68.80
80945;BME280;70400;50.934;11.590;2024-01-15T03:29:46;98378.53;;;1.01;69.08
80945;BME280;70400;50.934;11.590;2024-01-15T03:30:37;98383.97;;;0.98;69.17
80945;BME280;70400;50.934;11.590;2024-01-15T03:31:28;98379.75;;;0.97;68.98
80945;BME280;70400;50.934;11.590;2024-01-15T03:32:19;98377.97;;;0.98;69.08
80945;BME280;70400;50.934;11.590;2024-01-15T03:33:10;98366.28;;;1.03;69.51
80945;BME280;70400;50.934;11.590;2024-01-15T03:34:01;98368.41;;;0.98;69.41
80945;BME280;70400;50.934;11.590;2024-01-15T03:34:52;98370.28;;;0.96;69.57
80945;BME280;70400;50.934;11.590;2024-01-15T03:35:43;98366.28;;;1.03;69.22
80945;BME280;70400;50.934;11.590;2024-01-15T03:36:34;98367.34;;;1.01;69.10
80945;BME280;70400;50.934;11.590;2024-01-15T03:37:25;98361.06;;;1.03;69.08
80945;BME280;70400;50.934;11.590;2024-01-15T03:38:16;98370.38;;;1.06;68.77
80945;BME280;70400;50.934;11.590;2024-01-15T03:39:07;98378.31;;;1.04;68.77
80945;BME280;70400;50.934;11.590;2024-01-15T03:39:58;98365.19;;;1.06;68.93
80945;BME280;70400;50.934;11.590;2024-01-15T03:40:49;98367.59;;;0.98;69.19
80945;BME280;70400;50.934;11.590;2024-01-15T03:41:40;98366.06;;;0.95;69.50
80945;BME280;70400;50.934;11.590;2024-01-15T03:42:31;98365.34;;;0.93;69.71
80945;BME280;70400;50.934;11.590;2024-01-15T03:43:23;98364.88;;;0.99;68.89
80945;BME280;70400;50.934;11.590;2024-01-15T03:44:14;98371.72;;;1.00;68.95
80945;BME280;70400;50.934;11.590;2024-01-15T03:45:05;98374.41;;;0.99;69.17
80945;BME280;70400;50.934;11.590;2024-01-15T03:45:56;98370.78;;;0.90;69.11
80945;BME280;70400;50.934;11.590;2024-01-15T03:46:47;98380.00;;;0.94;69.59
80945;BME280;70400;50.934;11.590;2024-01-15T03:47:37;98380.00;;;0.94;69.19
80945;BME280;70400;50.934;11.590;2024-01-15T03:48:28;98379.03;;;0.95;69.80
80945;BME280;70400;50.934;11.590;2024-01-15T03:49:19;98378.59;;;0.90;69.56
80945;BME280;70400;50.934;11.590;2024-01-15T03:50:10;98390.13;;;0.97;69.04
80945;BME280;70400;50.934;11.590;2024-01-15T03:51:01;98385.06;;;0.96;69.43
80945;BME280;70400;50.934;11.590;2024-01-15T03:51:52;98385.41;;;1.02;69.29
80945;BME280;70400;50.934;11.590;2024-01-15T03:52:43;98391.03;;;1.07;69.20
80945;BME280;70400;50.934;11.590;2024-01-15T03:53:33;98388.09;;;1.01;68.84
80945;BME280;70400;50.934;11.590;2024-01-15T03:54:24;98389.78;;;1.02;69.20
80945;BME280;70400;50.934;11.590;2024-01-15T03:55:16;98398.03;;;0.96;69.14
80945;BME280;70400;50.934;11.590;2024-01-15T03:56:06;98393.44;;;0.99;69.09
80945;BME280;70400;50.934;11.590;2024-01-15T03:56:57;98395.06;;;1.00;69.29
80945;BME280;70400;50.934;11.590;2024-01-15T03:57:48;98389.78;;;1.02;69.23
80945;BME280;70400;50.934;11.590;2024-01-15T03:58:39;98392.13;;;1.05;69.32
80945;BME280;70400;50.934;11.590;2024-01-15T03:59:30;98392.94;;;1.05;68.97
80945;BME280;70400;50.934;11.590;2024-01-15T04:00:21;98396.25;;;1.07;68.98
80945;BME280;70400;50.934;11.590;2024-01-15T04:01:12;98389.53;;;1.05;69.07
80945;BME280;70400;50.934;11.590;2024-01-15T04:02:04;98392.47;;;1.00;69.26
80945;BME280;70400;50.934;11.590;2024-01-15T04:02:54;98386.94;;;1.05;69.75
80945;BME280;70400;50.934;11.590;2024-01-15T04:03:45;98383.72;;;1.01;69.52
80945;BME280;70400;50.934;11.590;2024-01-15T04:04:40;98381.38;;;1.10;69.26
80945;BME280;70400;50.934;11.590;2024-01-15T04:05:31;98387.03;;;1.03;68.97
80945;BME280;70400;50.934;11.590;2024-01-15T04:06:22;98382.44;;;1.07;69.46
80945;BME280;70400;50.934;11.590;2024-01-15T04:07:13;98392.81;;;1.07;69.18
80945;BME280;70400;50.934;11.590;2024-01-15T04:08:04;98389.28;;;1.08;69.16
80945;BME280;70400;50.934;11.590;2024-01-15T04:08:55;98389.97;;;1.10;69.07
80945;BME280;70400;50.934;11.590;2024-01-15T04:09:45;98377.72;;;1.01;69.06
80945;BME280;70400;50.934;11.590;2024-01-15T04:10:37;98394.72;;;1.05;69.87
80945;BME280;70400;50.934;11.590;2024-01-15T04:11:27;98390.44;;;1.04;69.71
80945;BME280;70400;50.934;11.590;2024-01-15T04:12:18;98389.06;;;1.00;69.87
80945;BME280;70400;50.934;11.590;2024-01-15T04:13:09;98381.63;;;0.95;69.92
80945;BME280;70400;50.934;11.590;2024-01-15T04:14:00;98377.06;;;0.88;69.86
80945;BME280;70400;50.934;11.590;2024-01-15T04:14:51;98388.25;;;0.88;69.90
80945;BME280;70400;50.934;11.590;2024-01-15T04:15:42;98385.41;;;0.91;69.46
80945;BME280;70400;50.934;11.590;2024-01-15T04:16:33;98385.41;;;0.91;69.87
80945;BME280;70400;50.934;11.590;2024-01-15T04:17:24;98384.72;;;0.89;69.94
80945;BME280;70400;50.934;11.590;2024-01-15T04:18:16;98387.31;;;0.89;69.92
80945;BME280;70400;50.934;11.590;2024-01-15T04:19:07;98392.50;;;0.89;69.59
80945;BME280;70400;50.934;11.590;2024-01-15T04:19:58;98383.53;;;0.93;69.47
80945;BME280;70400;50.934;11.590;2024-01-15T04:20:51;98394.63;;;0.95;69.35
80945;BME280;70400;50.934;11.590;2024-01-15T04:21:42;98389.06;;;0.89;69.53
80945;BME280;70400;50.934;11.590;2024-01-15T04:22:34;98392.25;;;0.92;69.94
80945;BME280;70400;50.934;11.590;2024-01-15T04:23:25;98396.16;;;0.86;70.06
80945;BME280;70400;50.934;11.590;2024-01-15T04:24:16;98393.56;;;0.86;70.18
80945;BME280;70400;50.934;11.590;2024-01-15T04:25:08;98386.72;;;0.85;69.95
80945;BME280;70400;50.934;11.590;2024-01-15T04:25:59;98398.38;;;0.91;70.17
80945;BME280;70400;50.934;11.590;2024-01-15T04:26:51;98390.50;;;0.93;69.78
80945;BME280;70400;50.934;11.590;2024-01-15T04:27:42;98400.31;;;0.89;69.77
80945;BME280;70400;50.934;11.590;2024-01-15T04:28:33;98395.22;;;0.88;69.80
80945;BME280;70400;50.934;11.590;2024-01-15T04:29:24;98397.91;;;0.86;69.82
80945;BME280;70400;50.934;11.590;2024-01-15T04:30:14;98388.84;;;0.92;69.45
80945;BME280;70400;50.934;11.590;2024-01-15T04:31:05;98391.19;;;0.95;69.92